sensor_id;sensor_type;location;lat;lon;timestamp;P1;durP1;ratioP1;P2;durP2;ratioP2
70293;SDS011;74367;35.280;-77.632;2023-12-22T00:01:41;2.77;;;0.60;;
70293;SDS011;74367;35.280;-77.632;2023-12-22T00:04:07;3.17;;;0.73;;
70293;SDS011;74367;35.280;-77.632;2023-12-22T00:06:33;3.53;;;0.82;;
70293;SDS011;74367;35.280;-77.632;2023-12-22T00:08:59;2.33;;;0.57;;
70293;SDS011;74367;35.280;-77.632;2023-12-22T00:11:25;3.22;;;0.90;;
70293;SDS011;74367;35.280;-77.632;2023-12-22T00:13:51;4.00;;;0.93;;
70293;SDS011;74367;35.280;-77.632;2023-12-22T00:16:17;4.20;;;0.70;;
70293;SDS011;74367;35.280;-77.632;2023-12-22T00:18:43;3.13;;;1.03;;
70293;SDS011;74367;35.280;-77.632;2023-12-22T00:21:09;5.30;;;1.10;;
70293;SDS011;74367;35.280;-77.632;2023-12-22T00:23:36;6.28;;;0.98;;
70293;SDS011;74367;35.280;-77.632;2023-12-22T00:26:03;5.18;;;1.65;;
70293;SDS011;74367;35.280;-77.632;2023-12-22T00:28:30;6.38;;;1.55;;
70293;SDS011;74367;35.280;-77.632;2023-12-22T00:30:59;5.87;;;1.57;;
70293;SDS011;74367;35.280;-77.632;2023-12-22T00:33:25;6.15;;;1.15;;
70293;SDS011;74367;35.280;-77.632;2023-12-22T00:35:51;3.97;;;1.10;;
70293;SDS011;74367;35.280;-77.632;2023-12-22T00:38:17;3.40;;;0.88;;
70293;SDS011;74367;35.280;-77.632;2023-12-22T00:40:43;4.67;;;1.33;;
70293;SDS011;74367;35.280;-77.632;2023-12-22T00:43:09;4.43;;;1.00;;
70293;SDS011;74367;35.280;-77.632;2023-12-22T00:45:35;4.78;;;1.10;;
70293;SDS011;74367;35.280;-77.632;2023-12-22T00:48:01;2.63;;;0.73;;
70293;SDS011;74367;35.280;-77.632;2023-12-22T00:50:27;3.20;;;0.73;;
70293;SDS011;74367;35.280;-77.632;2023-12-22T00:52:54;2.88;;;0.75;;
70293;SDS011;74367;35.280;-77.632;2023-12-22T00:55:21;4.13;;;0.95;;
70293;SDS011;74367;35.280;-77.632;2023-12-22T00:57:46;4.60;;;1.05;;
70293;SDS011;74367;35.280;-77.632;2023-12-22T01:00:13;3.40;;;0.83;;
70293;SDS011;74367;35.280;-77.632;2023-12-22T01:02:39;4.60;;;1.33;;
70293;SDS011;74367;35.280;-77.632;2023-12-22T01:05:05;4.55;;;1.40;;
70293;SDS011;74367;35.280;-77.632;2023-12-22T01:07:31;5.05;;;1.27;;
70293;SDS011;74367;35.280;-77.632;2023-12-22T01:09:57;3.10;;;0.80;;
70293;SDS011;74367;35.280;-77.632;2023-12-22T01:12:30;3.83;;;0.77;;
70293;SDS011;74367;35.280;-77.632;2023-12-22T01:14:56;3.75;;;0.90;;
70293;SDS011;74367;35.280;-77.632;2023-12-22T01:17:22;2.67;;;1.00;;
70293;SDS011;74367;35.280;-77.632;2023-12-22T01:19:48;6.82;;;1.17;;
70293;SDS011;74367;35.280;-77.632;2023-12-22T01:22:16;6.37;;;1.10;;
70293;SDS011;74367;35.280;-77.632;2023-12-22T01:24:42;4.65;;;1.15;;
70293;SDS011;74367;35.280;-77.632;2023-12-22T01:27:09;3.83;;;1.13;;
70293;SDS011;74367;35.280;-77.632;2023-12-22T01:29:36;4.15;;;1.33;;
70293;SDS011;74367;35.280;-77.632;2023-12-22T01:32:02;4.10;;;0.98;;
70293;SDS011;74367;35.280;-77.632;2023-12-22T01:34:28;4.53;;;1.30;;
70293;SDS011;74367;35.280;-77.632;2023-12-22T01:36:54;3.63;;;1.00;;
70293;SDS011;74367;35.280;-77.632;2023-12-22T01:39:20;4.00;;;1.00;;
70293;SDS011;74367;35.280;-77.632;2023-12-22T01:41:47;5.40;;;0.90;;
70293;SDS011;74367;35.280;-77.632;2023-12-22T01:44:13;3.47;;;0.73;;
70293;SDS011;74367;35.280;-77.632;2023-12-22T01:46:39;6.72;;;0.80;;
70293;SDS011;74367;35.280;-77.632;2023-12-22T01:49:05;4.10;;;1.13;;
70293;SDS011;74367;35.280;-77.632;2023-12-22T01:51:33;3.40;;;1.00;;
70293;SDS011;74367;35.280;-77.632;2023-12-22T01:54:02;3.72;;;1.10;;
70293;SDS011;74367;35.280;-77.632;2023-12-22T01:56:30;3.77;;;1.17;;
70293;SDS011;74367;35.280;-77.632;2023-12-22T01:58:57;5.18;;;1.10;;
70293;SDS011;74367;35.280;-77.632;2023-12-22T02:01:25;5.50;;;1.60;;
70293;SDS011;74367;35.280;-77.632;2023-12-22T02:03:53;3.85;;;0.70;;
70293;SDS011;74367;35.280;-77.632;2023-12-22T02:06:20;3.13;;;0.95;;
70293;SDS011;74367;35.280;-77.632;2023-12-22T02:08:46;3.57;;;0.90;;
70293;SDS011;74367;35.280;-77.632;2023-12-22T02:11:13;3.47;;;1.05;;
70293;SDS011;74367;35.280;-77.632;2023-12-22T02:13:40;4.65;;;1.20;;
70293;SDS011;74367;35.280;-77.632;2023-12-22T02:16:52;3.22;;;1.00;;
70293;SDS011;74367;35.280;-77.632;2023-12-22T02:22:06;3.50;;;1.17;;
70293;SDS011;74367;35.280;-77.632;2023-12-22T02:24:32;5.53;;;1.65;;
70293;SDS011;74367;35.280;-77.632;2023-12-22T02:29:35;5.53;;;1.38;;
70293;SDS011;74367;35.280;-77.632;2023-12-22T02:32:06;6.07;;;2.22;;
70293;SDS011;74367;35.280;-77.632;2023-12-22T02:34:35;4.10;;;1.10;;
70293;SDS011;74367;35.280;-77.632;2023-12-22T02:37:05;5.07;;;1.38;;
70293;SDS011;74367;35.280;-77.632;2023-12-22T02:39:34;4.65;;;1.10;;
70293;SDS011;74367;35.280;-77.632;2023-12-22T02:42:02;4.93;;;1.52;;
70293;SDS011;74367;35.280;-77.632;2023-12-22T02:44:31;4.43;;;1.25;;
70293;SDS011;74367;35.280;-77.632;2023-12-22T02:46:57;7.00;;;1.40;;
70293;SDS011;74367;35.280;-77.632;2023-12-22T02:49:23;6.35;;;1.58;;
70293;SDS011;74367;35.280;-77.632;2023-12-22T02:51:49;3.67;;;1.23;;
70293;SDS011;74367;35.280;-77.632;2023-12-22T02:54:15;3.33;;;1.05;;
70293;SDS011;74367;35.280;-77.632;2023-12-22T02:56:40;4.77;;;1.27;;
70293;SDS011;74367;35.280;-77.632;2023-12-22T02:59:08;3.83;;;1.30;;
70293;SDS011;74367;35.280;-77.632;2023-12-22T03:01:34;5.10;;;1.52;;
70293;SDS011;74367;35.280;-77.632;2023-12-22T03:04:00;3.63;;;1.33;;
70293;SDS011;74367;35.280;-77.632;2023-12-22T03:06:27;5.13;;;1.30;;
70293;SDS011;74367;35.280;-77.632;2023-12-22T03:08:54;5.35;;;1.30;;
70293;SDS011;74367;35.280;-77.632;2023-12-22T03:11:19;2.83;;;0.85;;
70293;SDS011;74367;35.280;-77.632;2023-12-22T03:13:45;3.40;;;1.47;;
70293;SDS011;74367;35.280;-77.632;2023-12-22T03:16:11;8.03;;;1.13;;
70293;SDS011;74367;35.280;-77.632;2023-12-22T03:18:38;3.85;;;1.33;;
70293;SDS011;74367;35.280;-77.632;2023-12-22T03:21:04;3.85;;;1.20;;
70293;SDS011;74367;35.280;-77.632;2023-12-22T03:23:30;3.45;;;1.02;;
70293;SDS011;74367;35.280;-77.632;2023-12-22T03:25:56;4.23;;;0.97;;
70293;SDS011;74367;35.280;-77.632;2023-12-22T03:28:22;4.88;;;0.95;;
70293;SDS011;74367;35.280;-77.632;2023-12-22T03:30:48;2.83;;;0.77;;
70293;SDS011;74367;35.280;-77.632;2023-12-22T03:33:14;5.57;;;1.30;;
70293;SDS011;74367;35.280;-77.632;2023-12-22T03:35:40;3.57;;;0.80;;
70293;SDS011;74367;35.280;-77.632;2023-12-22T03:38:06;4.07;;;1.08;;
70293;SDS011;74367;35.280;-77.632;2023-12-22T03:40:32;4.28;;;1.50;;
70293;SDS011;74367;35.280;-77.632;2023-12-22T03:42:59;4.47;;;1.63;;
70293;SDS011;74367;35.280;-77.632;2023-12-22T03:45:25;4.32;;;1.48;;
70293;SDS011;74367;35.280;-77.632;2023-12-22T03:47:51;3.67;;;1.30;;
70293;SDS011;74367;35.280;-77.632;2023-12-22T03:50:18;3.35;;;1.02;;
70293;SDS011;74367;35.280;-77.632;2023-12-22T03:52:44;5.07;;;1.13;;
70293;SDS011;74367;35.280;-77.632;2023-12-22T03:55:10;4.53;;;0.93;;
70293;SDS011;74367;35.280;-77.632;2023-12-22T03:57:36;7.30;;;1.33;;
70293;SDS011;74367;35.280;-77.632;2023-12-22T04:00:02;5.07;;;1.37;;
70293;SDS011;74367;35.280;-77.632;2023-12-22T04:02:29;8.70;;;1.60;;
70293;SDS011;74367;35.280;-77.632;2023-12-22T04:04:55;4.57;;;1.63;;
70293;SDS011;74367;35.280;-77.632;2023-12-22T04:07:21;3.90;;;0.98;;
70293;SDS011;74367;35.280;-77.632;2023-12-22T04:09:47;4.77;;;1.67;;
70293;SDS011;74367;35.280;-77.632;2023-12-22T04:12:13;3.92;;;1.20;;
70293;SDS011;74367;35.280;-77.632;2023-12-22T04:14:39;4.82;;;1.17;;
70293;SDS011;74367;35.280;-77.632;2023-12-22T04:17:04;3.60;;;1.00;;
70293;SDS011;74367;35.280;-77.632;2023-12-22T04:19:30;6.30;;;1.33;;
70293;SDS011;74367;35.280;-77.632;2023-12-22T04:21:56;3.70;;;0.80;;
70293;SDS011;74367;35.280;-77.632;2023-12-22T04:24:22;3.97;;;0.88;;
70293;SDS011;74367;35.280;-77.632;2023-12-22T04:26:48;4.40;;;1.30;;
70293;SDS011;74367;35.280;-77.632;2023-12-22T04:29:14;3.80;;;0.90;;
70293;SDS011;74367;35.280;-77.632;2023-12-22T04:31:40;3.40;;;0.85;;
70293;SDS011;74367;35.280;-77.632;2023-12-22T04:34:06;5.55;;;1.20;;
70293;SDS011;74367;35.280;-77.632;2023-12-22T04:36:32;2.77;;;0.97;;
70293;SDS011;74367;35.280;-77.632;2023-12-22T04:38:58;4.70;;;0.88;;
70293;SDS011;74367;35.280;-77.632;2023-12-22T04:41:24;4.63;;;1.13;;
70293;SDS011;74367;35.280;-77.632;2023-12-22T04:43:50;5.20;;;0.90;;
70293;SDS011;74367;35.280;-77.632;2023-12-22T04:46:16;3.03;;;0.90;;
70293;SDS011;74367;35.280;-77.632;2023-12-22T04:48:42;6.70;;;1.00;;
70293;SDS011;74367;35.280;-77.632;2023-12-22T04:51:08;3.72;;;1.02;;
70293;SDS011;74367;35.280;-77.632;2023-12-22T04:53:34;2.93;;;0.93;;
70293;SDS011;74367;35.280;-77.632;2023-12-22T04:55:59;5.93;;;0.90;;
70293;SDS011;74367;35.280;-77.632;2023-12-22T04:58:25;3.20;;;1.00;;
70293;SDS011;74367;35.280;-77.632;2023-12-22T05:00:51;2.67;;;0.47;;
70293;SDS011;74367;35.280;-77.632;2023-12-22T05:03:17;3.80;;;1.00;;
70293;SDS011;74367;35.280;-77.632;2023-12-22T05:05:43;3.45;;;0.80;;
70293;SDS011;74367;35.280;-77.632;2023-12-22T05:08:09;3.30;;;0.77;;
70293;SDS011;74367;35.280;-77.632;2023-12-22T05:10:35;3.67;;;1.10;;
70293;SDS011;74367;35.280;-77.632;2023-12-22T05:13:01;4.63;;;1.00;;
70293;SDS011;74367;35.280;-77.632;2023-12-22T05:15:27;3.45;;;1.10;;
70293;SDS011;74367;35.280;-77.632;2023-12-22T05:17:52;3.17;;;0.97;;
70293;SDS011;74367;35.280;-77.632;2023-12-22T05:20:18;4.20;;;1.53;;
70293;SDS011;74367;35.280;-77.632;2023-12-22T05:22:44;3.60;;;1.13;;
70293;SDS011;74367;35.280;-77.632;2023-12-22T05:25:12;4.32;;;1.15;;
70293;SDS011;74367;35.280;-77.632;2023-12-22T05:27:38;3.25;;;0.90;;
70293;SDS011;74367;35.280;-77.632;2023-12-22T05:30:07;3.97;;;0.90;;
70293;SDS011;74367;35.280;-77.632;2023-12-22T05:32:33;3.83;;;1.20;;
70293;SDS011;74367;35.280;-77.632;2023-12-22T05:34:59;3.25;;;1.20;;
70293;SDS011;74367;35.280;-77.632;2023-12-22T05:37:27;3.57;;;1.07;;
70293;SDS011;74367;35.280;-77.632;2023-12-22T05:39:53;3.27;;;1.20;;
70293;SDS011;74367;35.280;-77.632;2023-12-22T05:42:20;5.75;;;1.58;;
70293;SDS011;74367;35.280;-77.632;2023-12-22T05:44:46;6.85;;;2.45;;
70293;SDS011;74367;35.280;-77.632;2023-12-22T05:47:18;5.35;;;1.98;;
70293;SDS011;74367;35.280;-77.632;2023-12-22T05:49:44;6.88;;;1.80;;
70293;SDS011;74367;35.280;-77.632;2023-12-22T05:52:10;5.13;;;1.07;;
70293;SDS011;74367;35.280;-77.632;2023-12-22T05:54:37;5.28;;;1.95;;
70293;SDS011;74367;35.280;-77.632;2023-12-22T05:57:04;4.88;;;1.90;;
70293;SDS011;74367;35.280;-77.632;2023-12-22T05:59:31;5.15;;;1.50;;
70293;SDS011;74367;35.280;-77.632;2023-12-22T06:01:58;4.35;;;1.35;;
70293;SDS011;74367;35.280;-77.632;2023-12-22T06:04:24;4.47;;;1.27;;
70293;SDS011;74367;35.280;-77.632;2023-12-22T06:06:50;3.75;;;1.15;;
70293;SDS011;74367;35.280;-77.632;2023-12-22T06:09:16;3.78;;;1.27;;
70293;SDS011;74367;35.280;-77.632;2023-12-22T06:11:45;4.28;;;1.20;;
70293;SDS011;74367;35.280;-77.632;2023-12-22T06:14:11;4.87;;;1.30;;
70293;SDS011;74367;35.280;-77.632;2023-12-22T06:16:37;3.83;;;1.27;;
70293;SDS011;74367;35.280;-77.632;2023-12-22T06:19:04;3.13;;;1.08;;
70293;SDS011;74367;35.280;-77.632;2023-12-22T06:21:29;5.03;;;1.15;;
70293;SDS011;74367;35.280;-77.632;2023-12-22T06:23:55;3.23;;;1.13;;
70293;SDS011;74367;35.280;-77.632;2023-12-22T06:26:21;3.55;;;1.10;;
70293;SDS011;74367;35.280;-77.632;2023-12-22T06:28:48;6.38;;;1.40;;
70293;SDS011;74367;35.280;-77.632;2023-12-22T06:31:18;3.33;;;1.30;;
70293;SDS011;74367;35.280;-77.632;2023-12-22T06:33:46;5.07;;;1.40;;
70293;SDS011;74367;35.280;-77.632;2023-12-22T06:36:22;4.17;;;1.47;;
70293;SDS011;74367;35.280;-77.632;2023-12-22T06:38:50;3.78;;;1.10;;
70293;SDS011;74367;35.280;-77.632;2023-12-22T06:41:20;3.92;;;1.27;;
70293;SDS011;74367;35.280;-77.632;2023-12-22T06:43:48;3.55;;;0.98;;
70293;SDS011;74367;35.280;-77.632;2023-12-22T06:46:23;3.85;;;1.35;;
70293;SDS011;74367;35.280;-77.632;2023-12-22T06:48:56;5.37;;;1.23;;
70293;SDS011;74367;35.280;-77.632;2023-12-22T06:51:23;3.95;;;0.93;;
70293;SDS011;74367;35.280;-77.632;2023-12-22T06:53:55;4.53;;;1.23;;
70293;SDS011;74367;35.280;-77.632;2023-12-22T06:56:23;4.75;;;1.23;;
70293;SDS011;74367;35.280;-77.632;2023-12-22T06:58:50;4.93;;;1.40;;
70293;SDS011;74367;35.280;-77.632;2023-12-22T07:01:18;4.03;;;1.40;;
70293;SDS011;74367;35.280;-77.632;2023-12-22T07:03:46;3.60;;;1.20;;
70293;SDS011;74367;35.280;-77.632;2023-12-22T07:06:13;4.30;;;1.20;;
70293;SDS011;74367;35.280;-77.632;2023-12-22T07:08:43;3.45;;;1.17;;
70293;SDS011;74367;35.280;-77.632;2023-12-22T07:11:10;4.60;;;1.15;;
70293;SDS011;74367;35.280;-77.632;2023-12-22T07:13:38;4.00;;;1.40;;
70293;SDS011;74367;35.280;-77.632;2023-12-22T07:16:04;3.63;;;0.95;;
70293;SDS011;74367;35.280;-77.632;2023-12-22T07:18:31;3.33;;;1.20;;
70293;SDS011;74367;35.280;-77.632;2023-12-22T07:20:57;3.33;;;1.13;;
70293;SDS011;74367;35.280;-77.632;2023-12-22T07:23:24;4.82;;;1.30;;
70293;SDS011;74367;35.280;-77.632;2023-12-22T07:25:50;3.17;;;1.00;;
70293;SDS011;74367;35.280;-77.632;2023-12-22T07:28:16;5.85;;;0.93;;
70293;SDS011;74367;35.280;-77.632;2023-12-22T07:30:42;2.53;;;0.65;;
70293;SDS011;74367;35.280;-77.632;2023-12-22T07:33:09;5.22;;;1.35;;
70293;SDS011;74367;35.280;-77.632;2023-12-22T07:35:35;3.80;;;1.20;;
70293;SDS011;74367;35.280;-77.632;2023-12-22T07:38:01;5.07;;;1.02;;
70293;SDS011;74367;35.280;-77.632;2023-12-22T07:40:30;3.63;;;1.13;;
70293;SDS011;74367;35.280;-77.632;2023-12-22T07:42:59;6.88;;;1.35;;
70293;SDS011;74367;35.280;-77.632;2023-12-22T07:45:26;3.53;;;1.10;;
70293;SDS011;74367;35.280;-77.632;2023-12-22T07:47:53;6.47;;;1.10;;
70293;SDS011;74367;35.280;-77.632;2023-12-22T07:50:19;4.30;;;1.58;;
70293;SDS011;74367;35.280;-77.632;2023-12-22T07:52:46;4.03;;;0.90;;
70293;SDS011;74367;35.280;-77.632;2023-12-22T07:55:12;6.13;;;1.77;;
70293;SDS011;74367;35.280;-77.632;2023-12-22T07:57:38;4.87;;;0.77;;
70293;SDS011;74367;35.280;-77.632;2023-12-22T08:00:04;8.23;;;1.45;;
70293;SDS011;74367;35.280;-77.632;2023-12-22T08:02:31;5.43;;;1.30;;
70293;SDS011;74367;35.280;-77.632;2023-12-22T08:04:57;6.37;;;1.20;;
70293;SDS011;74367;35.280;-77.632;2023-12-22T08:07:23;5.38;;;1.58;;
70293;SDS011;74367;35.280;-77.632;2023-12-22T08:09:49;4.43;;;1.17;;
70293;SDS011;74367;35.280;-77.632;2023-12-22T08:12:15;3.75;;;1.00;;
70293;SDS011;74367;35.280;-77.632;2023-12-22T08:14:41;4.30;;;1.10;;
70293;SDS011;74367;35.280;-77.632;2023-12-22T08:17:07;2.85;;;0.82;;
70293;SDS011;74367;35.280;-77.632;2023-12-22T08:19:33;3.63;;;0.98;;
70293;SDS011;74367;35.280;-77.632;2023-12-22T08:21:59;2.92;;;1.08;;
70293;SDS011;74367;35.280;-77.632;2023-12-22T08:24:24;2.93;;;1.00;;
70293;SDS011;74367;35.280;-77.632;2023-12-22T08:26:50;5.43;;;1.10;;
70293;SDS011;74367;35.280;-77.632;2023-12-22T08:29:16;4.00;;;0.70;;
70293;SDS011;74367;35.280;-77.632;2023-12-22T08:31:44;3.55;;;1.10;;
70293;SDS011;74367;35.280;-77.632;2023-12-22T08:34:10;3.30;;;0.90;;
70293;SDS011;74367;35.280;-77.632;2023-12-22T08:36:36;6.25;;;1.15;;
70293;SDS011;74367;35.280;-77.632;2023-12-22T08:39:02;2.65;;;0.80;;
70293;SDS011;74367;35.280;-77.632;2023-12-22T08:41:30;3.88;;;0.85;;
70293;SDS011;74367;35.280;-77.632;2023-12-22T08:44:01;4.77;;;1.00;;
70293;SDS011;74367;35.280;-77.632;2023-12-22T08:46:28;4.85;;;0.90;;
70293;SDS011;74367;35.280;-77.632;2023-12-22T08:48:56;3.03;;;1.00;;
70293;SDS011;74367;35.280;-77.632;2023-12-22T08:51:22;3.22;;;1.00;;
70293;SDS011;74367;35.280;-77.632;2023-12-22T08:53:48;2.90;;;0.73;;
70293;SDS011;74367;35.280;-77.632;2023-12-22T08:56:15;4.80;;;1.30;;
70293;SDS011;74367;35.280;-77.632;2023-12-22T08:58:42;2.60;;;0.85;;
70293;SDS011;74367;35.280;-77.632;2023-12-22T09:01:14;6.63;;;1.30;;
70293;SDS011;74367;35.280;-77.632;2023-12-22T09:03:40;3.85;;;1.02;;
70293;SDS011;74367;35.280;-77.632;2023-12-22T09:06:11;2.50;;;0.70;;
70293;SDS011;74367;35.280;-77.632;2023-12-22T09:08:41;3.10;;;0.98;;
70293;SDS011;74367;35.280;-77.632;2023-12-22T09:11:08;4.13;;;1.13;;
70293;SDS011;74367;35.280;-77.632;2023-12-22T09:13:34;4.40;;;1.30;;
70293;SDS011;74367;35.280;-77.632;2023-12-22T09:16:01;4.53;;;1.38;;
70293;SDS011;74367;35.280;-77.632;2023-12-22T09:18:30;4.93;;;0.70;;
70293;SDS011;74367;35.280;-77.632;2023-12-22T09:20:56;4.93;;;1.40;;
70293;SDS011;74367;35.280;-77.632;2023-12-22T09:23:22;9.20;;;1.40;;
70293;SDS011;74367;35.280;-77.632;2023-12-22T09:25:49;5.50;;;1.20;;
70293;SDS011;74367;35.280;-77.632;2023-12-22T09:28:15;3.40;;;1.23;;
70293;SDS011;74367;35.280;-77.632;2023-12-22T09:30:41;3.70;;;1.07;;
70293;SDS011;74367;35.280;-77.632;2023-12-22T09:33:09;5.35;;;1.00;;
70293;SDS011;74367;35.280;-77.632;2023-12-22T09:35:36;3.53;;;1.25;;
70293;SDS011;74367;35.280;-77.632;2023-12-22T09:38:02;4.85;;;1.40;;
70293;SDS011;74367;35.280;-77.632;2023-12-22T09:40:29;4.07;;;1.02;;
70293;SDS011;74367;35.280;-77.632;2023-12-22T09:42:55;3.83;;;0.97;;
70293;SDS011;74367;35.280;-77.632;2023-12-22T09:45:24;4.25;;;1.30;;
70293;SDS011;74367;35.280;-77.632;2023-12-22T09:47:51;3.47;;;1.10;;
70293;SDS011;74367;35.280;-77.632;2023-12-22T09:50:18;3.33;;;0.95;;
70293;SDS011;74367;35.280;-77.632;2023-12-22T09:52:45;3.60;;;1.15;;
70293;SDS011;74367;35.280;-77.632;2023-12-22T09:55:12;3.87;;;1.33;;
70293;SDS011;74367;35.280;-77.632;2023-12-22T09:57:39;5.80;;;1.67;;
70293;SDS011;74367;35.280;-77.632;2023-12-22T10:00:08;4.07;;;0.80;;
70293;SDS011;74367;35.280;-77.632;2023-12-22T10:02:39;4.32;;;1.20;;
70293;SDS011;74367;35.280;-77.632;2023-12-22T10:05:06;2.97;;;1.15;;
70293;SDS011;74367;35.280;-77.632;2023-12-22T10:07:32;3.30;;;1.20;;
70293;SDS011;74367;35.280;-77.632;2023-12-22T10:09:59;4.63;;;1.63;;
70293;SDS011;74367;35.280;-77.632;2023-12-22T10:12:31;4.68;;;1.30;;
70293;SDS011;74367;35.280;-77.632;2023-12-22T10:15:00;6.78;;;1.17;;
70293;SDS011;74367;35.280;-77.632;2023-12-22T10:17:27;3.88;;;1.30;;
70293;SDS011;74367;35.280;-77.632;2023-12-22T10:19:53;4.30;;;1.20;;
70293;SDS011;74367;35.280;-77.632;2023-12-22T10:22:19;5.30;;;1.52;;
70293;SDS011;74367;35.280;-77.632;2023-12-22T10:24:48;4.75;;;1.40;;
70293;SDS011;74367;35.280;-77.632;2023-12-22T10:27:17;3.30;;;0.80;;
70293;SDS011;74367;35.280;-77.632;2023-12-22T10:29:54;7.57;;;1.65;;
70293;SDS011;74367;35.280;-77.632;2023-12-22T10:32:21;4.87;;;1.40;;
70293;SDS011;74367;35.280;-77.632;2023-12-22T10:34:48;4.18;;;1.00;;
70293;SDS011;74367;35.280;-77.632;2023-12-22T10:37:16;3.33;;;1.10;;
70293;SDS011;74367;35.280;-77.632;2023-12-22T10:39:42;5.55;;;1.50;;
70293;SDS011;74367;35.280;-77.632;2023-12-22T10:42:09;4.93;;;2.00;;
70293;SDS011;74367;35.280;-77.632;2023-12-22T10:44:35;5.50;;;1.33;;
70293;SDS011;74367;35.280;-77.632;2023-12-22T10:47:06;3.30;;;1.05;;
70293;SDS011;74367;35.280;-77.632;2023-12-22T10:49:32;4.55;;;1.70;;
70293;SDS011;74367;35.280;-77.632;2023-12-22T10:51:59;3.78;;;1.02;;
70293;SDS011;74367;35.280;-77.632;2023-12-22T10:54:25;6.40;;;1.90;;
70293;SDS011;74367;35.280;-77.632;2023-12-22T10:56:51;3.75;;;1.20;;
70293;SDS011;74367;35.280;-77.632;2023-12-22T10:59:22;7.85;;;1.88;;
70293;SDS011;74367;35.280;-77.632;2023-12-22T11:01:53;4.35;;;0.68;;
70293;SDS011;74367;35.280;-77.632;2023-12-22T11:04:21;4.57;;;1.23;;
70293;SDS011;74367;35.280;-77.632;2023-12-22T11:06:51;5.23;;;1.43;;
70293;SDS011;74367;35.280;-77.632;2023-12-22T11:09:21;3.47;;;1.02;;
70293;SDS011;74367;35.280;-77.632;2023-12-22T11:11:52;3.38;;;1.50;;
70293;SDS011;74367;35.280;-77.632;2023-12-22T11:14:20;5.47;;;1.42;;
70293;SDS011;74367;35.280;-77.632;2023-12-22T11:16:46;3.53;;;1.10;;
70293;SDS011;74367;35.280;-77.632;2023-12-22T11:19:14;3.33;;;0.83;;
70293;SDS011;74367;35.280;-77.632;2023-12-22T11:21:40;5.03;;;1.40;;
70293;SDS011;74367;35.280;-77.632;2023-12-22T11:24:08;2.97;;;0.93;;
70293;SDS011;74367;35.280;-77.632;2023-12-22T11:26:34;5.93;;;1.45;;
70293;SDS011;74367;35.280;-77.632;2023-12-22T11:29:03;3.35;;;1.15;;
70293;SDS011;74367;35.280;-77.632;2023-12-22T11:31:31;5.63;;;1.50;;
70293;SDS011;74367;35.280;-77.632;2023-12-22T11:33:58;5.03;;;1.55;;
70293;SDS011;74367;35.280;-77.632;2023-12-22T11:36:26;5.00;;;1.13;;
70293;SDS011;74367;35.280;-77.632;2023-12-22T11:38:54;4.38;;;1.20;;
70293;SDS011;74367;35.280;-77.632;2023-12-22T11:41:28;4.38;;;1.48;;
70293;SDS011;74367;35.280;-77.632;2023-12-22T11:43:57;4.97;;;1.67;;
70293;SDS011;74367;35.280;-77.632;2023-12-22T11:46:24;4.72;;;1.30;;
70293;SDS011;74367;35.280;-77.632;2023-12-22T11:48:51;4.30;;;1.48;;
70293;SDS011;74367;35.280;-77.632;2023-12-22T11:51:18;3.92;;;1.40;;
70293;SDS011;74367;35.280;-77.632;2023-12-22T11:53:45;3.92;;;1.50;;
70293;SDS011;74367;35.280;-77.632;2023-12-22T11:56:11;3.37;;;0.93;;
70293;SDS011;74367;35.280;-77.632;2023-12-22T12:01:07;3.50;;;1.25;;
70293;SDS011;74367;35.280;-77.632;2023-12-22T12:03:47;3.88;;;1.50;;
70293;SDS011;74367;35.280;-77.632;2023-12-22T12:06:17;3.47;;;1.27;;
70293;SDS011;74367;35.280;-77.632;2023-12-22T12:08:54;3.97;;;1.23;;
70293;SDS011;74367;35.280;-77.632;2023-12-22T12:11:21;3.38;;;0.95;;
70293;SDS011;74367;35.280;-77.632;2023-12-22T12:13:48;5.05;;;1.30;;
70293;SDS011;74367;35.280;-77.632;2023-12-22T12:16:19;4.28;;;1.50;;
70293;SDS011;74367;35.280;-77.632;2023-12-22T12:18:49;4.77;;;1.27;;
70293;SDS011;74367;35.280;-77.632;2023-12-22T12:21:18;5.10;;;1.88;;
70293;SDS011;74367;35.280;-77.632;2023-12-22T12:23:44;4.05;;;1.40;;
70293;SDS011;74367;35.280;-77.632;2023-12-22T12:26:10;5.15;;;1.80;;
70293;SDS011;74367;35.280;-77.632;2023-12-22T12:28:37;5.47;;;1.30;;
70293;SDS011;74367;35.280;-77.632;2023-12-22T12:31:07;3.33;;;1.40;;
70293;SDS011;74367;35.280;-77.632;2023-12-22T12:33:37;3.33;;;1.33;;
70293;SDS011;74367;35.280;-77.632;2023-12-22T12:36:03;5.40;;;1.45;;
70293;SDS011;74367;35.280;-77.632;2023-12-22T12:41:19;3.90;;;1.50;;
70293;SDS011;74367;35.280;-77.632;2023-12-22T12:44:00;4.77;;;1.70;;
70293;SDS011;74367;35.280;-77.632;2023-12-22T12:46:37;3.95;;;1.38;;
70293;SDS011;74367;35.280;-77.632;2023-12-22T12:51:31;4.63;;;1.65;;
70293;SDS011;74367;35.280;-77.632;2023-12-22T12:54:10;9.95;;;2.28;;
70293;SDS011;74367;35.280;-77.632;2023-12-22T12:56:46;4.30;;;1.13;;
70293;SDS011;74367;35.280;-77.632;2023-12-22T12:59:14;3.97;;;1.48;;
70293;SDS011;74367;35.280;-77.632;2023-12-22T13:01:44;4.85;;;1.65;;
70293;SDS011;74367;35.280;-77.632;2023-12-22T13:04:11;6.50;;;1.70;;
70293;SDS011;74367;35.280;-77.632;2023-12-22T13:06:47;5.32;;;1.67;;
70293;SDS011;74367;35.280;-77.632;2023-12-22T13:09:14;8.90;;;2.53;;
70293;SDS011;74367;35.280;-77.632;2023-12-22T13:11:42;4.95;;;2.00;;
70293;SDS011;74367;35.280;-77.632;2023-12-22T13:14:09;8.27;;;3.00;;
70293;SDS011;74367;35.280;-77.632;2023-12-22T13:16:35;6.40;;;2.80;;
70293;SDS011;74367;35.280;-77.632;2023-12-22T13:19:03;6.15;;;2.13;;
70293;SDS011;74367;35.280;-77.632;2023-12-22T13:21:29;9.30;;;2.37;;
70293;SDS011;74367;35.280;-77.632;2023-12-22T13:26:35;6.20;;;2.38;;
70293;SDS011;74367;35.280;-77.632;2023-12-22T13:29:01;9.13;;;2.28;;
70293;SDS011;74367;35.280;-77.632;2023-12-22T13:31:27;5.50;;;2.20;;
70293;SDS011;74367;35.280;-77.632;2023-12-22T13:33:53;9.18;;;2.88;;
70293;SDS011;74367;35.280;-77.632;2023-12-22T13:36:21;7.20;;;2.30;;
70293;SDS011;74367;35.280;-77.632;2023-12-22T13:38:47;7.85;;;2.83;;
70293;SDS011;74367;35.280;-77.632;2023-12-22T13:41:14;6.10;;;2.50;;
70293;SDS011;74367;35.280;-77.632;2023-12-22T13:43:41;7.63;;;2.57;;
70293;SDS011;74367;35.280;-77.632;2023-12-22T13:46:12;6.78;;;2.88;;
70293;SDS011;74367;35.280;-77.632;2023-12-22T13:48:42;7.00;;;2.53;;
70293;SDS011;74367;35.280;-77.632;2023-12-22T13:51:08;7.32;;;2.70;;
70293;SDS011;74367;35.280;-77.632;2023-12-22T13:53:35;6.30;;;2.17;;
70293;SDS011;74367;35.280;-77.632;2023-12-22T13:56:11;9.10;;;2.27;;
70293;SDS011;74367;35.280;-77.632;2023-12-22T13:58:44;7.57;;;2.05;;
70293;SDS011;74367;35.280;-77.632;2023-12-22T14:01:13;8.15;;;2.17;;
70293;SDS011;74367;35.280;-77.632;2023-12-22T14:03:41;6.35;;;2.25;;
70293;SDS011;74367;35.280;-77.632;2023-12-22T14:06:11;6.22;;;2.80;;
70293;SDS011;74367;35.280;-77.632;2023-12-22T14:08:40;8.57;;;2.60;;
70293;SDS011;74367;35.280;-77.632;2023-12-22T14:11:09;6.63;;;2.50;;
70293;SDS011;74367;35.280;-77.632;2023-12-22T14:13:35;6.47;;;2.58;;
70293;SDS011;74367;35.280;-77.632;2023-12-22T14:16:05;7.50;;;2.58;;
70293;SDS011;74367;35.280;-77.632;2023-12-22T14:18:32;9.67;;;2.40;;
70293;SDS011;74367;35.280;-77.632;2023-12-22T14:20:58;7.65;;;2.20;;
70293;SDS011;74367;35.280;-77.632;2023-12-22T14:23:24;8.30;;;2.40;;
70293;SDS011;74367;35.280;-77.632;2023-12-22T14:25:50;6.00;;;1.38;;
70293;SDS011;74367;35.280;-77.632;2023-12-22T14:28:16;6.03;;;2.35;;
70293;SDS011;74367;35.280;-77.632;2023-12-22T14:30:42;5.80;;;2.73;;
70293;SDS011;74367;35.280;-77.632;2023-12-22T14:33:09;5.80;;;2.10;;
70293;SDS011;74367;35.280;-77.632;2023-12-22T14:35:35;5.95;;;2.03;;
70293;SDS011;74367;35.280;-77.632;2023-12-22T14:38:02;4.65;;;1.95;;